sensor_id;sensor_type;location;lat;lon;timestamp;P1;durP1;ratioP1;P2;durP2;ratioP2
41333;SDS011;27078;46.428;6.256;2023-10-13T00:01:41;5.93;;;1.80;;
41333;SDS011;27078;46.428;6.256;2023-10-13T00:04:07;9.05;;;2.10;;
41333;SDS011;27078;46.428;6.256;2023-10-13T00:06:33;9.18;;;2.05;;
41333;SDS011;27078;46.428;6.256;2023-10-13T00:08:59;7.43;;;1.88;;
41333;SDS011;27078;46.428;6.256;2023-10-13T00:11:24;6.53;;;1.73;;
41333;SDS011;27078;46.428;6.256;2023-10-13T00:13:51;7.65;;;2.15;;
41333;SDS011;27078;46.428;6.256;2023-10-13T00:16:18;6.97;;;2.50;;
41333;SDS011;27078;46.428;6.256;2023-10-13T00:18:46;4.85;;;1.80;;
41333;SDS011;27078;46.428;6.256;2023-10-13T00:21:13;6.30;;;2.00;;
41333;SDS011;27078;46.428;6.256;2023-10-13T00:23:56;5.35;;;1.83;;
41333;SDS011;27078;46.428;6.256;2023-10-13T00:26:23;8.68;;;2.03;;
41333;SDS011;27078;46.428;6.256;2023-10-13T00:28:51;7.97;;;2.17;;
41333;SDS011;27078;46.428;6.256;2023-10-13T00:31:24;8.35;;;2.13;;
41333;SDS011;27078;46.428;6.256;2023-10-13T00:33:51;7.03;;;2.08;;
41333;SDS011;27078;46.428;6.256;2023-10-13T00:36:20;8.05;;;1.90;;
41333;SDS011;27078;46.428;6.256;2023-10-13T00:38:46;9.35;;;2.00;;
41333;SDS011;27078;46.428;6.256;2023-10-13T00:41:17;10.50;;;2.38;;
41333;SDS011;27078;46.428;6.256;2023-10-13T00:43:46;7.80;;;2.20;;
41333;SDS011;27078;46.428;6.256;2023-10-13T00:46:32;6.35;;;2.10;;
41333;SDS011;27078;46.428;6.256;2023-10-13T00:49:00;8.88;;;2.13;;
41333;SDS011;27078;46.428;6.256;2023-10-13T00:51:29;5.97;;;2.22;;
41333;SDS011;27078;46.428;6.256;2023-10-13T00:54:03;7.30;;;2.15;;
41333;SDS011;27078;46.428;6.256;2023-10-13T00:56:33;8.77;;;2.05;;
41333;SDS011;27078;46.428;6.256;2023-10-13T00:58:59;6.35;;;2.10;;
41333;SDS011;27078;46.428;6.256;2023-10-13T01:01:27;6.60;;;2.05;;
41333;SDS011;27078;46.428;6.256;2023-10-13T01:03:55;6.43;;;2.33;;
41333;SDS011;27078;46.428;6.256;2023-10-13T01:06:24;9.20;;;2.38;;
41333;SDS011;27078;46.428;6.256;2023-10-13T01:08:56;5.60;;;1.92;;
41333;SDS011;27078;46.428;6.256;2023-10-13T01:11:25;6.63;;;2.38;;
41333;SDS011;27078;46.428;6.256;2023-10-13T01:13:55;7.28;;;2.30;;
41333;SDS011;27078;46.428;6.256;2023-10-13T01:16:22;9.45;;;2.42;;
41333;SDS011;27078;46.428;6.256;2023-10-13T01:18:51;6.68;;;2.10;;
41333;SDS011;27078;46.428;6.256;2023-10-13T01:21:17;6.68;;;1.98;;
41333;SDS011;27078;46.428;6.256;2023-10-13T01:23:45;7.63;;;2.28;;
41333;SDS011;27078;46.428;6.256;2023-10-13T01:26:12;10.27;;;2.20;;
41333;SDS011;27078;46.428;6.256;2023-10-13T01:28:43;6.05;;;2.10;;
41333;SDS011;27078;46.428;6.256;2023-10-13T01:31:15;8.00;;;2.10;;
41333;SDS011;27078;46.428;6.256;2023-10-13T01:33:51;6.18;;;2.30;;
41333;SDS011;27078;46.428;6.256;2023-10-13T01:36:22;7.68;;;2.40;;
41333;SDS011;27078;46.428;6.256;2023-10-13T01:38:48;6.13;;;2.22;;
41333;SDS011;27078;46.428;6.256;2023-10-13T01:41:15;7.80;;;2.40;;
41333;SDS011;27078;46.428;6.256;2023-10-13T01:43:41;7.53;;;2.28;;
41333;SDS011;27078;46.428;6.256;2023-10-13T01:46:08;7.25;;;2.20;;
41333;SDS011;27078;46.428;6.256;2023-10-13T01:48:34;7.85;;;2.40;;
41333;SDS011;27078;46.428;6.256;2023-10-13T01:51:04;7.50;;;2.30;;
41333;SDS011;27078;46.428;6.256;2023-10-13T01:53:31;6.70;;;2.28;;
41333;SDS011;27078;46.428;6.256;2023-10-13T01:55:56;6.15;;;2.30;;
41333;SDS011;27078;46.428;6.256;2023-10-13T01:58:22;6.30;;;2.25;;
41333;SDS011;27078;46.428;6.256;2023-10-13T02:00:51;10.23;;;2.30;;
41333;SDS011;27078;46.428;6.256;2023-10-13T02:03:17;5.63;;;2.30;;
41333;SDS011;27078;46.428;6.256;2023-10-13T02:05:46;10.32;;;2.45;;
41333;SDS011;27078;46.428;6.256;2023-10-13T02:08:16;6.13;;;2.25;;
41333;SDS011;27078;46.428;6.256;2023-10-13T02:10:52;7.30;;;2.38;;
41333;SDS011;27078;46.428;6.256;2023-10-13T02:13:19;6.93;;;2.33;;
41333;SDS011;27078;46.428;6.256;2023-10-13T02:15:47;7.90;;;2.08;;
41333;SDS011;27078;46.428;6.256;2023-10-13T02:18:16;6.90;;;2.55;;
41333;SDS011;27078;46.428;6.256;2023-10-13T02:23:11;5.97;;;2.30;;
41333;SDS011;27078;46.428;6.256;2023-10-13T02:25:37;8.95;;;2.30;;
41333;SDS011;27078;46.428;6.256;2023-10-13T02:28:11;6.65;;;2.10;;
41333;SDS011;27078;46.428;6.256;2023-10-13T02:33:13;6.28;;;2.00;;
41333;SDS011;27078;46.428;6.256;2023-10-13T02:35:41;7.53;;;2.00;;
41333;SDS011;27078;46.428;6.256;2023-10-13T02:38:08;6.85;;;1.90;;
41333;SDS011;27078;46.428;6.256;2023-10-13T02:40:37;6.22;;;2.17;;
41333;SDS011;27078;46.428;6.256;2023-10-13T02:43:03;6.28;;;2.20;;
41333;SDS011;27078;46.428;6.256;2023-10-13T02:45:30;5.95;;;2.10;;
41333;SDS011;27078;46.428;6.256;2023-10-13T02:47:57;6.53;;;2.10;;
41333;SDS011;27078;46.428;6.256;2023-10-13T02:50:39;5.32;;;2.00;;
41333;SDS011;27078;46.428;6.256;2023-10-13T02:53:08;7.15;;;2.10;;
41333;SDS011;27078;46.428;6.256;2023-10-13T02:55:37;7.05;;;2.20;;
41333;SDS011;27078;46.428;6.256;2023-10-13T02:58:04;6.03;;;1.83;;
41333;SDS011;27078;46.428;6.256;2023-10-13T03:00:29;8.25;;;2.25;;
41333;SDS011;27078;46.428;6.256;2023-10-13T03:02:57;5.68;;;1.92;;
41333;SDS011;27078;46.428;6.256;2023-10-13T03:05:26;7.30;;;2.25;;
41333;SDS011;27078;46.428;6.256;2023-10-13T03:07:56;8.05;;;2.00;;
41333;SDS011;27078;46.428;6.256;2023-10-13T03:10:23;8.27;;;2.22;;
41333;SDS011;27078;46.428;6.256;2023-10-13T03:12:54;7.32;;;1.80;;
41333;SDS011;27078;46.428;6.256;2023-10-13T03:15:19;7.85;;;2.13;;
41333;SDS011;27078;46.428;6.256;2023-10-13T03:17:47;8.63;;;2.05;;
41333;SDS011;27078;46.428;6.256;2023-10-13T03:20:13;6.18;;;1.98;;
41333;SDS011;27078;46.428;6.256;2023-10-13T03:22:41;5.95;;;2.13;;
41333;SDS011;27078;46.428;6.256;2023-10-13T03:25:10;6.45;;;2.15;;
41333;SDS011;27078;46.428;6.256;2023-10-13T03:27:42;7.05;;;1.77;;
41333;SDS011;27078;46.428;6.256;2023-10-13T03:30:17;9.35;;;2.47;;
41333;SDS011;27078;46.428;6.256;2023-10-13T03:32:43;6.90;;;2.28;;
41333;SDS011;27078;46.428;6.256;2023-10-13T03:35:10;7.07;;;2.50;;
41333;SDS011;27078;46.428;6.256;2023-10-13T03:37:42;5.53;;;2.20;;
41333;SDS011;27078;46.428;6.256;2023-10-13T03:40:08;7.10;;;1.98;;
41333;SDS011;27078;46.428;6.256;2023-10-13T03:42:49;6.45;;;2.13;;
41333;SDS011;27078;46.428;6.256;2023-10-13T03:45:25;6.68;;;2.10;;
41333;SDS011;27078;46.428;6.256;2023-10-13T03:47:51;7.75;;;2.30;;
41333;SDS011;27078;46.428;6.256;2023-10-13T03:50:17;5.78;;;1.98;;
41333;SDS011;27078;46.428;6.256;2023-10-13T03:52:54;11.18;;;2.28;;
41333;SDS011;27078;46.428;6.256;2023-10-13T03:55:23;5.45;;;2.15;;
41333;SDS011;27078;46.428;6.256;2023-10-13T03:57:54;6.28;;;1.90;;
41333;SDS011;27078;46.428;6.256;2023-10-13T04:00:20;7.97;;;2.00;;
41333;SDS011;27078;46.428;6.256;2023-10-13T04:02:50;6.57;;;2.22;;
41333;SDS011;27078;46.428;6.256;2023-10-13T04:05:31;7.53;;;2.20;;
41333;SDS011;27078;46.428;6.256;2023-10-13T04:08:26;6.55;;;2.20;;
41333;SDS011;27078;46.428;6.256;2023-10-13T04:10:52;5.28;;;1.65;;
41333;SDS011;27078;46.428;6.256;2023-10-13T04:13:18;6.18;;;1.95;;
41333;SDS011;27078;46.428;6.256;2023-10-13T04:16:09;6.55;;;2.28;;
41333;SDS011;27078;46.428;6.256;2023-10-13T04:18:46;11.27;;;2.10;;
41333;SDS011;27078;46.428;6.256;2023-10-13T04:21:32;6.45;;;2.10;;
41333;SDS011;27078;46.428;6.256;2023-10-13T04:24:15;5.47;;;2.00;;
41333;SDS011;27078;46.428;6.256;2023-10-13T04:26:44;8.20;;;2.08;;
41333;SDS011;27078;46.428;6.256;2023-10-13T04:29:30;7.53;;;2.10;;
41333;SDS011;27078;46.428;6.256;2023-10-13T04:32:20;7.80;;;2.08;;
41333;SDS011;27078;46.428;6.256;2023-10-13T04:34:59;8.85;;;2.08;;
41333;SDS011;27078;46.428;6.256;2023-10-13T04:37:54;6.75;;;2.22;;
41333;SDS011;27078;46.428;6.256;2023-10-13T04:40:25;8.07;;;2.08;;
41333;SDS011;27078;46.428;6.256;2023-10-13T04:42:53;4.53;;;2.00;;
41333;SDS011;27078;46.428;6.256;2023-10-13T04:45:21;7.88;;;2.63;;
41333;SDS011;27078;46.428;6.256;2023-10-13T04:48:03;5.15;;;2.13;;
41333;SDS011;27078;46.428;6.256;2023-10-13T04:50:48;5.20;;;2.55;;
41333;SDS011;27078;46.428;6.256;2023-10-13T04:53:17;8.48;;;2.25;;
41333;SDS011;27078;46.428;6.256;2023-10-13T04:55:57;7.38;;;2.40;;
41333;SDS011;27078;46.428;6.256;2023-10-13T04:58:32;6.18;;;2.40;;
41333;SDS011;27078;46.428;6.256;2023-10-13T05:01:04;6.72;;;2.33;;
41333;SDS011;27078;46.428;6.256;2023-10-13T05:04:01;8.00;;;2.53;;
41333;SDS011;27078;46.428;6.256;2023-10-13T05:06:45;8.25;;;2.80;;
41333;SDS011;27078;46.428;6.256;2023-10-13T05:09:11;5.80;;;2.17;;
41333;SDS011;27078;46.428;6.256;2023-10-13T05:12:07;6.85;;;2.42;;
41333;SDS011;27078;46.428;6.256;2023-10-13T05:14:50;6.05;;;2.30;;
41333;SDS011;27078;46.428;6.256;2023-10-13T05:17:51;6.80;;;2.70;;
41333;SDS011;27078;46.428;6.256;2023-10-13T05:20:35;8.43;;;2.45;;
41333;SDS011;27078;46.428;6.256;2023-10-13T05:23:18;8.07;;;2.30;;
41333;SDS011;27078;46.428;6.256;2023-10-13T05:26:02;7.18;;;2.42;;
41333;SDS011;27078;46.428;6.256;2023-10-13T05:28:47;5.15;;;2.15;;
41333;SDS011;27078;46.428;6.256;2023-10-13T05:31:30;9.95;;;2.42;;
41333;SDS011;27078;46.428;6.256;2023-10-13T05:34:14;7.95;;;2.58;;
41333;SDS011;27078;46.428;6.256;2023-10-13T05:36:58;7.75;;;2.78;;
41333;SDS011;27078;46.428;6.256;2023-10-13T05:39:42;8.88;;;2.83;;
41333;SDS011;27078;46.428;6.256;2023-10-13T05:42:26;5.07;;;2.83;;
41333;SDS011;27078;46.428;6.256;2023-10-13T05:45:10;8.25;;;2.65;;
41333;SDS011;27078;46.428;6.256;2023-10-13T05:47:41;8.10;;;2.80;;
41333;SDS011;27078;46.428;6.256;2023-10-13T05:50:09;6.43;;;2.53;;
41333;SDS011;27078;46.428;6.256;2023-10-13T05:52:45;7.38;;;2.88;;
41333;SDS011;27078;46.428;6.256;2023-10-13T05:55:25;7.30;;;2.78;;
41333;SDS011;27078;46.428;6.256;2023-10-13T05:58:13;6.75;;;2.70;;
41333;SDS011;27078;46.428;6.256;2023-10-13T06:00:57;8.48;;;2.55;;
41333;SDS011;27078;46.428;6.256;2023-10-13T06:03:42;7.18;;;2.78;;
41333;SDS011;27078;46.428;6.256;2023-10-13T06:06:26;9.63;;;3.10;;
41333;SDS011;27078;46.428;6.256;2023-10-13T06:09:10;8.73;;;2.92;;
41333;SDS011;27078;46.428;6.256;2023-10-13T06:11:54;8.00;;;3.00;;
41333;SDS011;27078;46.428;6.256;2023-10-13T06:14:38;8.70;;;3.10;;
41333;SDS011;27078;46.428;6.256;2023-10-13T06:17:22;7.28;;;2.90;;
41333;SDS011;27078;46.428;6.256;2023-10-13T06:20:07;8.85;;;2.83;;
41333;SDS011;27078;46.428;6.256;2023-10-13T06:22:51;9.20;;;3.10;;
41333;SDS011;27078;46.428;6.256;2023-10-13T06:25:35;11.75;;;3.58;;
41333;SDS011;27078;46.428;6.256;2023-10-13T06:28:19;11.60;;;3.00;;
41333;SDS011;27078;46.428;6.256;2023-10-13T06:31:04;10.90;;;3.05;;
41333;SDS011;27078;46.428;6.256;2023-10-13T06:33:35;8.40;;;3.10;;
41333;SDS011;27078;46.428;6.256;2023-10-13T06:36:03;6.68;;;2.65;;
41333;SDS011;27078;46.428;6.256;2023-10-13T06:38:34;10.93;;;2.78;;
41333;SDS011;27078;46.428;6.256;2023-10-13T06:41:06;7.85;;;3.00;;
41333;SDS011;27078;46.428;6.256;2023-10-13T06:43:35;8.50;;;2.70;;
41333;SDS011;27078;46.428;6.256;2023-10-13T06:46:05;9.13;;;3.08;;
41333;SDS011;27078;46.428;6.256;2023-10-13T06:48:39;9.77;;;3.33;;
41333;SDS011;27078;46.428;6.256;2023-10-13T06:51:06;10.88;;;3.03;;
41333;SDS011;27078;46.428;6.256;2023-10-13T06:53:46;7.00;;;3.20;;
41333;SDS011;27078;46.428;6.256;2023-10-13T06:56:16;7.68;;;2.88;;
41333;SDS011;27078;46.428;6.256;2023-10-13T06:58:48;7.72;;;3.05;;
41333;SDS011;27078;46.428;6.256;2023-10-13T07:01:14;7.20;;;3.03;;
41333;SDS011;27078;46.428;6.256;2023-10-13T07:03:41;9.13;;;3.30;;
41333;SDS011;27078;46.428;6.256;2023-10-13T07:06:08;6.82;;;3.47;;
41333;SDS011;27078;46.428;6.256;2023-10-13T07:08:37;12.68;;;2.97;;
41333;SDS011;27078;46.428;6.256;2023-10-13T07:11:02;7.55;;;2.83;;
41333;SDS011;27078;46.428;6.256;2023-10-13T07:13:33;7.70;;;3.30;;
41333;SDS011;27078;46.428;6.256;2023-10-13T07:16:03;10.50;;;3.38;;
41333;SDS011;27078;46.428;6.256;2023-10-13T07:18:38;5.57;;;2.90;;
41333;SDS011;27078;46.428;6.256;2023-10-13T07:21:18;6.18;;;2.97;;
41333;SDS011;27078;46.428;6.256;2023-10-13T07:23:56;13.57;;;3.28;;
41333;SDS011;27078;46.428;6.256;2023-10-13T07:26:34;9.05;;;3.42;;
41333;SDS011;27078;46.428;6.256;2023-10-13T07:29:10;7.95;;;3.03;;
41333;SDS011;27078;46.428;6.256;2023-10-13T07:31:36;10.32;;;3.20;;
41333;SDS011;27078;46.428;6.256;2023-10-13T07:34:03;8.40;;;2.83;;
41333;SDS011;27078;46.428;6.256;2023-10-13T07:36:38;8.40;;;3.42;;
41333;SDS011;27078;46.428;6.256;2023-10-13T07:39:04;10.55;;;3.47;;
41333;SDS011;27078;46.428;6.256;2023-10-13T07:41:49;6.38;;;3.20;;
41333;SDS011;27078;46.428;6.256;2023-10-13T07:44:31;10.18;;;3.20;;
41333;SDS011;27078;46.428;6.256;2023-10-13T07:46:58;8.00;;;3.42;;
41333;SDS011;27078;46.428;6.256;2023-10-13T07:49:33;8.75;;;2.70;;
41333;SDS011;27078;46.428;6.256;2023-10-13T07:52:01;9.63;;;3.03;;
41333;SDS011;27078;46.428;6.256;2023-10-13T07:54:49;8.75;;;2.83;;
41333;SDS011;27078;46.428;6.256;2023-10-13T07:57:35;12.32;;;3.38;;
41333;SDS011;27078;46.428;6.256;2023-10-13T08:00:01;10.07;;;3.13;;
41333;SDS011;27078;46.428;6.256;2023-10-13T08:02:37;8.35;;;2.90;;
41333;SDS011;27078;46.428;6.256;2023-10-13T08:05:15;6.80;;;2.63;;
41333;SDS011;27078;46.428;6.256;2023-10-13T08:08:04;10.68;;;2.97;;
41333;SDS011;27078;46.428;6.256;2023-10-13T08:10:39;9.73;;;2.95;;
41333;SDS011;27078;46.428;6.256;2023-10-13T08:13:07;7.93;;;3.13;;
41333;SDS011;27078;46.428;6.256;2023-10-13T08:15:37;10.00;;;3.08;;
41333;SDS011;27078;46.428;6.256;2023-10-13T08:18:05;8.13;;;3.55;;
41333;SDS011;27078;46.428;6.256;2023-10-13T08:20:39;11.43;;;3.15;;
41333;SDS011;27078;46.428;6.256;2023-10-13T08:23:05;10.20;;;3.10;;
41333;SDS011;27078;46.428;6.256;2023-10-13T08:25:42;9.05;;;3.08;;
41333;SDS011;27078;46.428;6.256;2023-10-13T08:28:26;8.02;;;2.97;;
41333;SDS011;27078;46.428;6.256;2023-10-13T08:31:04;6.55;;;2.88;;
41333;SDS011;27078;46.428;6.256;2023-10-13T08:33:46;9.18;;;3.58;;
41333;SDS011;27078;46.428;6.256;2023-10-13T08:36:12;10.80;;;3.53;;
41333;SDS011;27078;46.428;6.256;2023-10-13T08:38:53;9.75;;;3.17;;
41333;SDS011;27078;46.428;6.256;2023-10-13T08:41:20;8.23;;;3.03;;
41333;SDS011;27078;46.428;6.256;2023-10-13T08:43:49;8.20;;;2.83;;
41333;SDS011;27078;46.428;6.256;2023-10-13T08:46:16;11.00;;;3.20;;
41333;SDS011;27078;46.428;6.256;2023-10-13T08:49:03;8.55;;;3.00;;
41333;SDS011;27078;46.428;6.256;2023-10-13T08:51:42;7.88;;;2.83;;
41333;SDS011;27078;46.428;6.256;2023-10-13T08:54:11;10.13;;;2.78;;
41333;SDS011;27078;46.428;6.256;2023-10-13T08:56:44;8.52;;;3.05;;
41333;SDS011;27078;46.428;6.256;2023-10-13T08:59:21;9.18;;;2.83;;
41333;SDS011;27078;46.428;6.256;2023-10-13T09:01:48;7.03;;;2.88;;
41333;SDS011;27078;46.428;6.256;2023-10-13T09:04:24;10.13;;;3.05;;
41333;SDS011;27078;46.428;6.256;2023-10-13T09:06:59;12.52;;;3.33;;
41333;SDS011;27078;46.428;6.256;2023-10-13T09:09:31;15.52;;;3.70;;
41333;SDS011;27078;46.428;6.256;2023-10-13T09:14:37;8.05;;;3.25;;
41333;SDS011;27078;46.428;6.256;2023-10-13T09:17:09;9.18;;;3.47;;
41333;SDS011;27078;46.428;6.256;2023-10-13T09:19:50;6.70;;;2.60;;
41333;SDS011;27078;46.428;6.256;2023-10-13T09:22:26;6.45;;;2.65;;
41333;SDS011;27078;46.428;6.256;2023-10-13T09:25:00;10.52;;;2.85;;
41333;SDS011;27078;46.428;6.256;2023-10-13T09:27:28;7.32;;;2.55;;
41333;SDS011;27078;46.428;6.256;2023-10-13T09:29:55;6.45;;;2.75;;
41333;SDS011;27078;46.428;6.256;2023-10-13T09:32:21;9.95;;;3.00;;
41333;SDS011;27078;46.428;6.256;2023-10-13T09:34:46;7.65;;;2.53;;
41333;SDS011;27078;46.428;6.256;2023-10-13T09:37:13;8.88;;;2.80;;
41333;SDS011;27078;46.428;6.256;2023-10-13T09:39:45;9.63;;;2.97;;
41333;SDS011;27078;46.428;6.256;2023-10-13T09:42:13;6.38;;;2.58;;
41333;SDS011;27078;46.428;6.256;2023-10-13T09:44:41;5.97;;;2.63;;
41333;SDS011;27078;46.428;6.256;2023-10-13T09:47:14;6.32;;;2.55;;
41333;SDS011;27078;46.428;6.256;2023-10-13T09:49:49;7.20;;;3.13;;
41333;SDS011;27078;46.428;6.256;2023-10-13T09:52:22;7.32;;;2.72;;
41333;SDS011;27078;46.428;6.256;2023-10-13T09:57:58;8.52;;;2.53;;
41333;SDS011;27078;46.428;6.256;2023-10-13T10:00:35;6.30;;;2.50;;
41333;SDS011;27078;46.428;6.256;2023-10-13T10:03:07;6.80;;;2.72;;
41333;SDS011;27078;46.428;6.256;2023-10-13T10:05:55;7.28;;;2.50;;
41333;SDS011;27078;46.428;6.256;2023-10-13T10:08:31;8.52;;;2.65;;
41333;SDS011;27078;46.428;6.256;2023-10-13T10:13:34;6.88;;;2.58;;
41333;SDS011;27078;46.428;6.256;2023-10-13T10:16:08;7.10;;;2.75;;
41333;SDS011;27078;46.428;6.256;2023-10-13T10:18:40;9.48;;;2.70;;
41333;SDS011;27078;46.428;6.256;2023-10-13T10:21:07;9.82;;;2.58;;
41333;SDS011;27078;46.428;6.256;2023-10-13T10:23:32;6.22;;;2.53;;
41333;SDS011;27078;46.428;6.256;2023-10-13T10:26:13;9.38;;;2.60;;
41333;SDS011;27078;46.428;6.256;2023-10-13T10:28:42;10.70;;;2.50;;
41333;SDS011;27078;46.428;6.256;2023-10-13T10:31:09;7.88;;;2.80;;
41333;SDS011;27078;46.428;6.256;2023-10-13T10:33:41;10.07;;;3.10;;
41333;SDS011;27078;46.428;6.256;2023-10-13T10:36:06;10.52;;;3.05;;
41333;SDS011;27078;46.428;6.256;2023-10-13T10:38:54;6.75;;;2.78;;
41333;SDS011;27078;46.428;6.256;2023-10-13T10:41:27;10.38;;;2.70;;
41333;SDS011;27078;46.428;6.256;2023-10-13T10:44:11;7.57;;;2.80;;
41333;SDS011;27078;46.428;6.256;2023-10-13T10:46:41;6.88;;;2.38;;
41333;SDS011;27078;46.428;6.256;2023-10-13T10:49:17;8.95;;;2.70;;
41333;SDS011;27078;46.428;6.256;2023-10-13T10:51:52;7.97;;;2.70;;
41333;SDS011;27078;46.428;6.256;2023-10-13T10:54:25;6.75;;;2.45;;
41333;SDS011;27078;46.428;6.256;2023-10-13T10:56:58;4.35;;;2.30;;
41333;SDS011;27078;46.428;6.256;2023-10-13T10:59:36;6.65;;;2.22;;
41333;SDS011;27078;46.428;6.256;2023-10-13T11:02:02;7.43;;;2.50;;
41333;SDS011;27078;46.428;6.256;2023-10-13T11:04:28;6.03;;;2.22;;
41333;SDS011;27078;46.428;6.256;2023-10-13T11:06:59;7.53;;;2.47;;
41333;SDS011;27078;46.428;6.256;2023-10-13T11:14:39;9.73;;;2.92;;
41333;SDS011;27078;46.428;6.256;2023-10-13T11:17:05;7.70;;;2.70;;
41333;SDS011;27078;46.428;6.256;2023-10-13T11:19:42;8.10;;;2.65;;
41333;SDS011;27078;46.428;6.256;2023-10-13T11:25:10;8.38;;;2.53;;
41333;SDS011;27078;46.428;6.256;2023-10-13T11:27:39;6.28;;;2.80;;
41333;SDS011;27078;46.428;6.256;2023-10-13T11:30:17;7.35;;;2.92;;
41333;SDS011;27078;46.428;6.256;2023-10-13T11:33:10;6.80;;;2.70;;
41333;SDS011;27078;46.428;6.256;2023-10-13T11:35:39;7.18;;;2.38;;
41333;SDS011;27078;46.428;6.256;2023-10-13T11:40:52;6.13;;;2.30;;
41333;SDS011;27078;46.428;6.256;2023-10-13T11:43:54;7.40;;;2.58;;
41333;SDS011;27078;46.428;6.256;2023-10-13T11:46:48;8.23;;;2.40;;
41333;SDS011;27078;46.428;6.256;2023-10-13T11:51:52;7.82;;;2.88;;
41333;SDS011;27078;46.428;6.256;2023-10-13T11:54:27;5.30;;;2.33;;
41333;SDS011;27078;46.428;6.256;2023-10-13T11:56:52;5.20;;;2.40;;
41333;SDS011;27078;46.428;6.256;2023-10-13T11:59:17;6.72;;;2.30;;
41333;SDS011;27078;46.428;6.256;2023-10-13T12:01:52;5.20;;;2.17;;
41333;SDS011;27078;46.428;6.256;2023-10-13T12:04:36;6.18;;;2.58;;
41333;SDS011;27078;46.428;6.256;2023-10-13T12:07:19;7.72;;;2.50;;
41333;SDS011;27078;46.428;6.256;2023-10-13T12:09:49;6.00;;;2.35;;
41333;SDS011;27078;46.428;6.256;2023-10-13T12:12:19;7.38;;;2.33;;
41333;SDS011;27078;46.428;6.256;2023-10-13T12:14:45;6.18;;;2.35;;
41333;SDS011;27078;46.428;6.256;2023-10-13T12:17:26;7.47;;;2.25;;
41333;SDS011;27078;46.428;6.256;2023-10-13T12:19:56;9.70;;;2.40;;
41333;SDS011;27078;46.428;6.256;2023-10-13T12:22:23;5.18;;;2.47;;
41333;SDS011;27078;46.428;6.256;2023-10-13T12:25:03;6.22;;;2.30;;
41333;SDS011;27078;46.428;6.256;2023-10-13T12:27:30;7.28;;;2.53;;
41333;SDS011;27078;46.428;6.256;2023-10-13T12:30:11;5.72;;;2.03;;
41333;SDS011;27078;46.428;6.256;2023-10-13T12:32:39;10.57;;;2.40;;
41333;SDS011;27078;46.428;6.256;2023-10-13T12:35:19;5.63;;;2.42;;
41333;SDS011;27078;46.428;6.256;2023-10-13T12:38:00;6.05;;;1.90;;
41333;SDS011;27078;46.428;6.256;2023-10-13T12:40:41;8.95;;;2.30;;
41333;SDS011;27078;46.428;6.256;2023-10-13T12:43:25;5.30;;;2.30;;
41333;SDS011;27078;46.428;6.256;2023-10-13T12:46:09;4.50;;;2.15;;
41333;SDS011;27078;46.428;6.256;2023-10-13T12:48:53;5.60;;;2.30;;
41333;SDS011;27078;46.428;6.256;2023-10-13T12:51:29;6.95;;;2.30;;
41333;SDS011;27078;46.428;6.256;2023-10-13T12:53:57;5.55;;;2.22;;
41333;SDS011;27078;46.428;6.256;2023-10-13T12:56:29;6.32;;;2.30;;
41333;SDS011;27078;46.428;6.256;2023-10-13T12:58:55;4.20;;;2.25;;
41333;SDS011;27078;46.428;6.256;2023-10-13T13:01:22;5.28;;;2.33;;
41333;SDS011;27078;46.428;6.256;2023-10-13T13:03:50;5.78;;;2.40;;
41333;SDS011;27078;46.428;6.256;2023-10-13T13:06:21;8.40;;;2.20;;
41333;SDS011;27078;46.428;6.256;2023-10-13T13:08:53;4.72;;;2.28;;
41333;SDS011;27078;46.428;6.256;2023-10-13T13:11:19;6.13;;;2.40;;
41333;SDS011;27078;46.428;6.256;2023-10-13T13:13:46;8.32;;;2.63;;
41333;SDS011;27078;46.428;6.256;2023-10-13T13:16:14;6.10;;;2.50;;
41333;SDS011;27078;46.428;6.256;2023-10-13T13:18:51;6.53;;;2.40;;
41333;SDS011;27078;46.428;6.256;2023-10-13T13:21:20;6.03;;;2.40;;
41333;SDS011;27078;46.428;6.256;2023-10-13T13:23:48;5.30;;;2.50;;
41333;SDS011;27078;46.428;6.256;2023-10-13T13:26:14;7.88;;;2.50;;
41333;SDS011;27078;46.428;6.256;2023-10-13T13:28:46;5.78;;;2.78;;
41333;SDS011;27078;46.428;6.256;2023-10-13T13:31:19;8.82;;;2.70;;
41333;SDS011;27078;46.428;6.256;2023-10-13T13:33:50;4.90;;;2.78;;
41333;SDS011;27078;46.428;6.256;2023-10-13T13:36:16;4.75;;;2.80;;
41333;SDS011;27078;46.428;6.256;2023-10-13T13:38:42;5.65;;;2.60;;
41333;SDS011;27078;46.428;6.256;2023-10-13T13:41:14;7.93;;;2.72;;
41333;SDS011;27078;46.428;6.256;2023-10-13T13:43:45;8.82;;;2.90;;
41333;SDS011;27078;46.428;6.256;2023-10-13T13:46:17;6.88;;;2.92;;
41333;SDS011;27078;46.428;6.256;2023-10-13T13:48:52;5.78;;;2.95;;
41333;SDS011;27078;46.428;6.256;2023-10-13T13:51:24;7.75;;;3.03;;
41333;SDS011;27078;46.428;6.256;2023-10-13T13:53:54;5.95;;;3.15;;
41333;SDS011;27078;46.428;6.256;2023-10-13T13:56:20;4.88;;;3.05;;
41333;SDS011;27078;46.428;6.256;2023-10-13T13:58:47;8.18;;;3.15;;
41333;SDS011;27078;46.428;6.256;2023-10-13T14:01:15;4.75;;;3.20;;
41333;SDS011;27078;46.428;6.256;2023-10-13T14:03:43;8.18;;;3.25;;
41333;SDS011;27078;46.428;6.256;2023-10-13T14:06:17;7.95;;;3.03;;
41333;SDS011;27078;46.428;6.256;2023-10-13T14:08:46;8.05;;;3.78;;
41333;SDS011;27078;46.428;6.256;2023-10-13T14:11:23;5.22;;;3.20;;
41333;SDS011;27078;46.428;6.256;2023-10-13T14:16:51;7.05;;;3.30;;
41333;SDS011;27078;46.428;6.256;2023-10-13T14:19:20;7.68;;;3.35;;
41333;SDS011;27078;46.428;6.256;2023-10-13T14:21:52;6.72;;;3.53;;
41333;SDS011;27078;46.428;6.256;2023-10-13T14:24:18;11.18;;;3.80;;
41333;SDS011;27078;46.428;6.256;2023-10-13T14:26:56;6.95;;;3.50;;
41333;SDS011;27078;46.428;6.256;2023-10-13T14:29:32;5.93;;;3.42;;
41333;SDS011;27078;46.428;6.256;2023-10-13T14:32:05;8.52;;;3.33;;
41333;SDS011;27078;46.428;6.256;2023-10-13T14:34:40;5.00;;;3.28;;
41333;SDS011;27078;46.428;6.256;2023-10-13T14:37:07;5.43;;;3.33;;
41333;SDS011;27078;46.428;6.256;2023-10-13T14:39:38;7.07;;;3.47;;
41333;SDS011;27078;46.428;6.256;2023-10-13T14:42:06;8.50;;;3.50;;
41333;SDS011;27078;46.428;6.256;2023-10-13T14:44:32;7.55;;;3.40;;
41333;SDS011;27078;46.428;6.256;2023-10-13T14:46:58;8.63;;;3.65;;
41333;SDS011;27078;46.428;6.256;2023-10-13T14:49:24;6.90;;;3.15;;
41333;SDS011;27078;46.428;6.256;2023-10-13T14:51:50;8.85;;;3.65;;
41333;SDS011;27078;46.428;6.256;2023-10-13T14:54:15;7.22;;;3.42;;
41333;SDS011;27078;46.428;6.256;2023-10-13T14:56:41;6.40;;;3.70;;
41333;SDS011;27078;46.428;6.256;2023-10-13T14:59:07;9.13;;;3.47;;
41333;SDS011;27078;46.428;6.256;2023-10-13T15:01:42;6.45;;;3.47;;
41333;SDS011;27078;46.428;6.256;2023-10-13T15:04:08;7.43;;;3.65;;
41333;SDS011;27078;46.428;6.256;2023-10-13T15:06:33;7.85;;;3.50;;
41333;SDS011;27078;46.428;6.256;2023-10-13T15:08:59;6.78;;;3.30;;
41333;SDS011;27078;46.428;6.256;2023-10-13T15:11:26;9.05;;;3.45;;
41333;SDS011;27078;46.428;6.256;2023-10-13T15:14:01;7.90;;;3.70;;
41333;SDS011;27078;46.428;6.256;2023-10-13T15:16:27;5.70;;;3.25;;
41333;SDS011;27078;46.428;6.256;2023-10-13T15:18:52;8.63;;;3.85;;
41333;SDS011;27078;46.428;6.256;2023-10-13T15:21:22;6.85;;;4.25;;
41333;SDS011;27078;46.428;6.256;2023-10-13T15:23:51;7.75;;;3.85;;
41333;SDS011;27078;46.428;6.256;2023-10-13T15:26:18;6.00;;;3.80;;
41333;SDS011;27078;46.428;6.256;2023-10-13T15:28:45;6.38;;;3.63;;
41333;SDS011;27078;46.428;6.256;2023-10-13T15:31:16;9.75;;;4.13;;
41333;SDS011;27078;46.428;6.256;2023-10-13T15:33:52;6.75;;;3.72;;
41333;SDS011;27078;46.428;6.256;2023-10-13T15:36:20;9.38;;;3.92;;
41333;SDS011;27078;46.428;6.256;2023-10-13T15:38:48;8.68;;;3.88;;
41333;SDS011;27078;46.428;6.256;2023-10-13T15:41:20;7.18;;;3.97;;
41333;SDS011;27078;46.428;6.256;2023-10-13T15:43:46;6.60;;;4.05;;
41333;SDS011;27078;46.428;6.256;2023-10-13T15:46:23;7.65;;;4.13;;
41333;SDS011;27078;46.428;6.256;2023-10-13T15:48:49;8.50;;;3.97;;